createdAt,value
2022-10-11T00:01:46.743Z,99.90
2022-10-11T00:04:13.609Z,99.90
2022-10-11T00:06:43.153Z,99.90
2022-10-11T00:09:11.578Z,99.90
2022-10-11T00:11:38.972Z,99.90
2022-10-11T00:14:06.753Z,99.90
2022-10-11T00:16:33.462Z,99.90
2022-10-11T00:19:00.206Z,99.90
2022-10-11T00:21:27.131Z,99.90
2022-10-11T00:23:53.858Z,99.90
2022-10-11T00:26:20.558Z,99.90
2022-10-11T00:28:47.190Z,99.90
2022-10-11T00:31:18.333Z,99.90
2022-10-11T00:33:46.025Z,99.90
2022-10-11T00:36:18.647Z,99.90
2022-10-11T00:38:45.709Z,99.90
2022-10-11T00:41:13.512Z,99.90
2022-10-11T00:43:40.987Z,99.90
2022-10-11T00:46:13.974Z,99.90
2022-10-11T00:48:46.117Z,99.90
2022-10-11T00:51:45.675Z,99.90
2022-10-11T00:54:15.862Z,99.90
2022-10-11T00:56:45.664Z,99.90
2022-10-11T00:59:20.716Z,99.90
2022-10-11T01:01:47.834Z,99.90
2022-10-11T01:04:14.982Z,99.90
2022-10-11T01:06:42.714Z,99.90
2022-10-11T01:09:09.943Z,99.90
2022-10-11T01:11:39.143Z,99.90
2022-10-11T01:14:21.866Z,99.90
2022-10-11T01:16:48.787Z,99.90
2022-10-11T01:19:49.829Z,99.90
2022-10-11T01:22:45.517Z,99.90
2022-10-11T01:25:18.501Z,99.90
2022-10-11T01:28:19.017Z,99.90
2022-10-11T01:30:46.365Z,99.90
2022-10-11T01:33:45.465Z,99.90
2022-10-11T01:36:31.206Z,99.90
2022-10-11T01:39:11.893Z,99.90
2022-10-11T01:41:47.068Z,99.90
2022-10-11T01:44:14.303Z,99.90
2022-10-11T01:46:41.381Z,99.90
2022-10-11T01:49:08.069Z,99.90
2022-10-11T01:51:45.075Z,99.90
2022-10-11T01:54:44.078Z,99.90
2022-10-11T01:57:33.736Z,99.90
2022-10-11T02:00:14.262Z,99.90
2022-10-11T02:02:47.739Z,99.90
2022-10-11T02:05:29.484Z,99.90
2022-10-11T02:08:12.238Z,99.90
2022-10-11T02:10:54.426Z,99.90
2022-10-11T02:13:43.430Z,99.90
2022-10-11T02:16:16.464Z,99.90
2022-10-11T02:18:51.544Z,99.90
2022-10-11T02:21:23.536Z,99.90
2022-10-11T02:24:08.092Z,99.90
2022-10-11T02:26:36.183Z,99.90
2022-10-11T02:29:07.320Z,99.90
2022-10-11T02:31:35.734Z,99.90
2022-10-11T02:34:14.037Z,99.90
2022-10-11T02:36:54.155Z,99.90
2022-10-11T02:39:26.643Z,99.90
2022-10-11T02:41:59.781Z,99.90
2022-10-11T02:44:32.254Z,99.90
2022-10-11T02:47:01.200Z,99.90
2022-10-11T02:49:29.687Z,99.90
2022-10-11T02:51:57.564Z,99.90
2022-10-11T02:54:25.993Z,99.90
2022-10-11T02:56:52.572Z,99.90
2022-10-11T02:59:19.247Z,99.90
2022-10-11T03:01:45.944Z,99.90
2022-10-11T03:04:12.738Z,99.90
2022-10-11T03:06:39.507Z,99.90
2022-10-11T03:09:06.577Z,99.90
2022-10-11T03:11:33.302Z,99.90
2022-10-11T03:13:59.857Z,99.90
2022-10-11T03:16:26.550Z,99.90
2022-10-11T03:18:53.161Z,99.90
2022-10-11T03:21:19.841Z,99.90
2022-10-11T03:23:46.508Z,99.90
2022-10-11T03:26:13.117Z,99.90
2022-10-11T03:28:39.844Z,99.90
2022-10-11T03:31:06.485Z,99.90
2022-10-11T03:33:33.185Z,99.90
2022-10-11T03:35:59.815Z,99.90
2022-10-11T03:38:26.578Z,99.90
2022-10-11T03:40:53.282Z,99.90
2022-10-11T03:43:20.316Z,99.90
2022-10-11T03:45:47.028Z,99.90
2022-10-11T03:48:13.653Z,99.90
2022-10-11T03:50:40.362Z,99.90
2022-10-11T03:53:07.285Z,99.90
2022-10-11T03:55:33.868Z,99.90
2022-10-11T03:58:00.739Z,99.90
2022-10-11T04:00:27.505Z,99.90
2022-10-11T04:02:54.211Z,99.90
2022-10-11T04:05:20.819Z,99.90
2022-10-11T04:07:47.579Z,99.90
2022-10-11T04:10:14.558Z,99.90
2022-10-11T04:12:41.277Z,99.90
2022-10-11T04:15:08.601Z,99.90
2022-10-11T04:17:35.202Z,99.90
2022-10-11T04:20:01.909Z,99.90
2022-10-11T04:22:28.572Z,99.90
2022-10-11T04:24:55.230Z,99.90
2022-10-11T04:27:22.189Z,99.90
2022-10-11T04:29:48.811Z,99.90
2022-10-11T04:32:15.612Z,99.90
2022-10-11T04:34:42.273Z,99.90
2022-10-11T04:37:08.897Z,99.90
2022-10-11T04:39:35.757Z,99.90
2022-10-11T04:42:02.330Z,99.90
2022-10-11T04:44:28.970Z,99.90
2022-10-11T04:46:55.623Z,99.90
2022-10-11T04:49:22.441Z,99.90
2022-10-11T04:51:49.172Z,99.90
2022-10-11T04:54:15.934Z,99.90
2022-10-11T04:56:42.627Z,99.90
2022-10-11T04:59:09.339Z,99.90
2022-10-11T05:01:36.010Z,99.90
2022-10-11T05:04:03.050Z,99.90
2022-10-11T05:06:29.694Z,99.90
2022-10-11T05:08:56.489Z,99.90
2022-10-11T05:11:23.245Z,99.90
2022-10-11T05:13:50.145Z,99.90
2022-10-11T05:16:17.346Z,99.90
2022-10-11T05:18:44.445Z,99.90
2022-10-11T05:21:19.331Z,99.90
2022-10-11T05:23:47.614Z,99.90
2022-10-11T05:26:14.685Z,99.90
2022-10-11T05:28:41.333Z,99.90
2022-10-11T05:31:08.563Z,99.90
2022-10-11T05:33:35.282Z,99.90
2022-10-11T05:36:02.388Z,99.90
2022-10-11T05:38:29.530Z,99.90
2022-10-11T05:40:59.902Z,99.90
2022-10-11T05:43:27.091Z,99.90
2022-10-11T05:45:54.045Z,99.90
2022-10-11T05:48:21.496Z,99.90
2022-10-11T05:50:48.322Z,99.90
2022-10-11T05:53:14.939Z,99.90
2022-10-11T05:55:43.634Z,99.90
2022-10-11T05:58:13.618Z,99.90
2022-10-11T06:00:40.553Z,99.90
2022-10-11T06:03:08.696Z,99.90
2022-10-11T06:05:35.840Z,99.90
2022-10-11T06:08:04.012Z,99.90
2022-10-11T06:10:30.601Z,99.90
2022-10-11T06:12:57.393Z,99.90
2022-10-11T06:15:24.499Z,99.90
2022-10-11T06:17:51.419Z,99.90
2022-10-11T06:20:18.385Z,99.90
2022-10-11T06:22:45.063Z,99.90
2022-10-11T06:25:12.160Z,99.90
2022-10-11T06:27:38.756Z,99.90
2022-10-11T06:30:07.244Z,99.90
2022-10-11T06:32:33.958Z,99.90
2022-10-11T06:35:00.686Z,99.90
2022-10-11T06:37:27.509Z,99.90
2022-10-11T06:39:54.094Z,99.90
2022-10-11T06:42:20.843Z,99.90
2022-10-11T06:44:47.491Z,99.90
2022-10-11T06:47:14.146Z,99.90
2022-10-11T06:49:40.729Z,99.90
2022-10-11T06:52:07.581Z,99.90
2022-10-11T06:54:34.229Z,99.90
2022-10-11T06:57:00.798Z,99.90
2022-10-11T06:59:27.436Z,99.90
2022-10-11T07:01:54.047Z,99.90
2022-10-11T07:04:20.663Z,99.90
2022-10-11T07:06:47.249Z,99.90
2022-10-11T07:09:14.717Z,99.90
2022-10-11T07:11:41.356Z,99.90
2022-10-11T07:14:08.166Z,99.90
2022-10-11T07:16:36.192Z,99.90
2022-10-11T07:19:04.937Z,99.90
2022-10-11T07:21:33.566Z,99.90
2022-10-11T07:24:01.454Z,99.90
2022-10-11T07:26:33.976Z,99.90
2022-10-11T07:29:05.196Z,99.90
2022-10-11T07:31:32.025Z,99.90
2022-10-11T07:33:58.657Z,99.90
2022-10-11T07:36:25.865Z,99.90
2022-10-11T07:38:52.789Z,99.90
2022-10-11T07:41:20.112Z,99.90
2022-10-11T07:43:49.432Z,99.90
2022-10-11T07:46:17.431Z,99.90
2022-10-11T07:48:44.026Z,99.90
2022-10-11T07:51:13.943Z,99.90
2022-10-11T07:53:42.639Z,99.90
2022-10-11T07:56:12.414Z,99.90
2022-10-11T07:58:40.232Z,99.90
2022-10-11T08:01:07.994Z,99.90
2022-10-11T08:03:35.382Z,99.90
2022-10-11T08:06:05.522Z,99.90
2022-10-11T08:08:32.609Z,99.90
2022-10-11T08:10:59.955Z,99.90
2022-10-11T08:13:27.542Z,99.90
2022-10-11T08:15:54.722Z,99.90
2022-10-11T08:18:21.757Z,99.90
2022-10-11T08:20:48.819Z,99.90
2022-10-11T08:23:17.279Z,99.90
2022-10-11T08:25:46.410Z,99.90
2022-10-11T08:28:17.304Z,99.90
2022-10-11T08:30:54.162Z,99.90
2022-10-11T08:33:22.504Z,99.90
2022-10-11T08:35:50.333Z,99.90
2022-10-11T08:38:18.008Z,99.90
2022-10-11T08:40:53.401Z,99.90
2022-10-11T08:43:45.947Z,99.90
2022-10-11T08:46:15.336Z,99.90
2022-10-11T08:48:48.989Z,99.90
2022-10-11T08:51:22.775Z,99.90
2022-10-11T08:53:55.993Z,99.90
2022-10-11T08:56:24.231Z,99.90
2022-10-11T08:59:11.395Z,99.90
2022-10-11T09:01:46.298Z,99.90
2022-10-11T09:04:17.611Z,99.90
2022-10-11T09:07:23.653Z,99.90
2022-10-11T09:10:08.489Z,99.90
2022-10-11T09:13:01.053Z,99.90
2022-10-11T09:15:51.892Z,99.90
2022-10-11T09:18:27.948Z,99.90
2022-10-11T09:21:24.877Z,99.90
2022-10-11T09:23:51.446Z,99.90
2022-10-11T09:26:35.226Z,99.90
2022-10-11T09:29:08.245Z,99.90
2022-10-11T09:31:35.036Z,99.90
2022-10-11T09:34:12.769Z,99.90
2022-10-11T09:36:54.717Z,99.90
2022-10-11T09:39:31.842Z,99.90
2022-10-11T09:42:07.750Z,99.90
2022-10-11T09:44:38.904Z,1.00
2022-10-11T09:47:07.294Z,1.00
2022-10-11T09:50:35.545Z,1.00
2022-10-11T09:53:05.008Z,99.90
2022-10-11T09:55:33.441Z,1.00
2022-10-11T09:58:00.501Z,1.00
2022-10-11T10:00:30.063Z,1.00
2022-10-11T10:02:59.470Z,1.00
2022-10-11T10:05:36.674Z,1.00
2022-10-11T10:08:09.377Z,14.10
2022-10-11T10:10:36.035Z,99.90
2022-10-11T10:13:05.925Z,1.00
2022-10-11T10:15:37.945Z,99.90
2022-10-11T10:18:10.725Z,99.90
2022-10-11T10:20:38.295Z,99.90
2022-10-11T10:23:18.962Z,99.90
2022-10-11T10:25:50.952Z,99.90
2022-10-11T10:28:26.410Z,99.90
2022-10-11T10:30:56.321Z,99.90
2022-10-11T10:33:31.434Z,99.90
2022-10-11T10:36:09.249Z,99.90
2022-10-11T10:38:52.169Z,99.90
2022-10-11T10:41:19.405Z,99.90
2022-10-11T10:43:56.469Z,99.90
2022-10-11T10:46:35.389Z,99.90
2022-10-11T10:52:13.027Z,99.90
2022-10-11T10:54:50.883Z,99.90
2022-10-11T10:57:33.349Z,99.90
2022-10-11T11:00:21.981Z,99.90
2022-10-11T11:03:02.158Z,99.90
2022-10-11T11:05:54.781Z,99.90
2022-10-11T11:08:46.588Z,99.90
2022-10-11T11:11:25.404Z,99.90
2022-10-11T11:14:24.837Z,99.90
2022-10-11T11:17:17.891Z,99.90
2022-10-11T11:20:16.266Z,99.90
2022-10-11T11:22:55.318Z,99.90
2022-10-11T11:25:34.407Z,98.80
2022-10-11T11:28:41.901Z,97.90
2022-10-11T11:31:33.798Z,97.20
2022-10-11T11:34:38.412Z,98.50
2022-10-11T11:37:13.782Z,98.90
2022-10-11T11:39:56.032Z,99.60
2022-10-11T11:42:44.065Z,98.70
2022-10-11T11:45:51.646Z,96.90
2022-10-11T11:48:21.312Z,97.00
2022-10-11T11:51:11.362Z,93.80
2022-10-11T11:53:53.459Z,91.10
2022-10-11T11:56:47.354Z,90.50
2022-10-11T11:59:43.706Z,90.60
2022-10-11T12:02:29.285Z,91.70
2022-10-11T12:04:57.323Z,91.50
2022-10-11T12:07:27.609Z,91.80
2022-10-11T12:10:16.633Z,94.60
2022-10-11T12:12:43.746Z,94.90
2022-10-11T12:15:24.820Z,92.00
2022-10-11T12:17:57.565Z,92.80
2022-10-11T12:20:31.505Z,91.10
2022-10-11T12:23:00.448Z,90.70
2022-10-11T12:25:27.154Z,93.50
2022-10-11T12:27:59.178Z,91.70
2022-10-11T12:30:52.486Z,91.20
2022-10-11T12:33:22.877Z,91.20
2022-10-11T12:35:52.816Z,93.50
2022-10-11T12:38:25.643Z,91.10
2022-10-11T12:41:13.415Z,90.30
2022-10-11T12:44:01.295Z,87.80
2022-10-11T12:46:28.050Z,85.10
2022-10-11T12:49:09.795Z,86.50
2022-10-11T12:51:44.873Z,84.60
2022-10-11T12:54:34.499Z,86.50
2022-10-11T12:57:12.111Z,83.60
2022-10-11T12:59:43.975Z,84.70
2022-10-11T13:02:40.863Z,87.40
2022-10-11T13:05:27.115Z,90.00
2022-10-11T13:07:58.073Z,90.10
2022-10-11T13:10:32.977Z,91.00
2022-10-11T13:13:04.219Z,89.00
2022-10-11T13:15:34.382Z,87.00
2022-10-11T13:18:04.259Z,86.20
2022-10-11T13:20:59.858Z,86.50
2022-10-11T13:23:35.871Z,90.30
2022-10-11T13:26:06.186Z,84.20
2022-10-11T13:28:41.275Z,84.70
2022-10-11T13:31:33.186Z,81.40
2022-10-11T13:34:00.438Z,83.30
2022-10-11T13:36:27.951Z,84.60
2022-10-11T13:39:03.342Z,84.90
2022-10-11T13:41:31.866Z,87.10
2022-10-11T13:44:05.132Z,81.20
2022-10-11T13:46:36.599Z,82.50
2022-10-11T13:49:25.546Z,82.50
2022-10-11T13:52:01.852Z,85.50
2022-10-11T13:54:57.138Z,84.60
2022-10-11T13:57:39.223Z,87.80
2022-10-11T14:00:15.060Z,89.90
2022-10-11T14:03:10.278Z,88.80
2022-10-11T14:05:44.112Z,89.40
2022-10-11T14:08:25.233Z,89.50
2022-10-11T14:10:56.675Z,89.50
2022-10-11T14:13:30.983Z,90.50
2022-10-11T14:16:11.531Z,91.20
2022-10-11T14:19:12.295Z,86.60
2022-10-11T14:21:45.959Z,88.10
2022-10-11T14:24:13.396Z,82.70
2022-10-11T14:26:46.750Z,79.70
2022-10-11T14:29:39.029Z,80.10
2022-10-11T14:32:12.006Z,81.50
2022-10-11T14:34:39.302Z,83.80
2022-10-11T14:37:06.377Z,80.40
2022-10-11T14:39:33.412Z,84.90
2022-10-11T14:42:03.914Z,83.80
2022-10-11T14:44:30.814Z,85.70
2022-10-11T14:46:57.555Z,83.70
2022-10-11T14:49:27.525Z,84.90
2022-10-11T14:52:01.762Z,87.80
2022-10-11T14:54:32.701Z,89.90
2022-10-11T14:57:03.414Z,87.30
2022-10-11T14:59:37.076Z,90.30
2022-10-11T15:02:06.101Z,89.70
2022-10-11T15:04:33.082Z,91.00
2022-10-11T15:07:00.129Z,91.50
2022-10-11T15:09:26.889Z,90.90
2022-10-11T15:11:54.737Z,89.80
2022-10-11T15:14:23.600Z,91.50
2022-10-11T15:16:50.428Z,92.90
2022-10-11T15:19:22.919Z,91.80
2022-10-11T15:21:50.098Z,91.60
2022-10-11T15:24:19.916Z,93.10
2022-10-11T15:26:47.763Z,94.40
2022-10-11T15:29:18.113Z,95.30
2022-10-11T15:31:46.252Z,96.00
2022-10-11T15:34:13.056Z,95.20
2022-10-11T15:36:39.895Z,95.60
2022-10-11T15:39:28.275Z,97.10
2022-10-11T15:41:54.965Z,97.70
2022-10-11T15:44:21.649Z,97.80
2022-10-11T15:46:48.498Z,98.40
2022-10-11T15:49:15.304Z,99.80
2022-10-11T15:51:42.033Z,99.90
2022-10-11T15:54:08.705Z,99.90
2022-10-11T15:56:47.842Z,99.90
2022-10-11T15:59:17.427Z,99.90
2022-10-11T16:01:46.843Z,99.90
2022-10-11T16:04:13.596Z,99.90
2022-10-11T16:06:41.353Z,99.90
2022-10-11T16:09:08.032Z,99.90
2022-10-11T16:11:34.710Z,99.90
2022-10-11T16:14:01.567Z,99.90
2022-10-11T16:16:28.590Z,99.90
2022-10-11T16:18:55.461Z,99.90
2022-10-11T16:21:23.723Z,99.90
2022-10-11T16:23:50.386Z,99.90
2022-10-11T16:26:17.252Z,99.90
2022-10-11T16:28:44.517Z,99.90
2022-10-11T16:31:16.764Z,99.90
2022-10-11T16:33:46.758Z,99.90
2022-10-11T16:36:32.463Z,99.90
2022-10-11T16:39:00.238Z,99.90
2022-10-11T16:41:26.899Z,99.90
2022-10-11T16:43:55.210Z,99.90
2022-10-11T16:46:22.317Z,99.90
2022-10-11T16:48:49.245Z,99.90
2022-10-11T16:51:15.846Z,99.90
2022-10-11T16:53:42.464Z,99.90
2022-10-11T16:56:11.812Z,99.90
2022-10-11T16:58:38.561Z,99.90
2022-10-11T17:01:10.898Z,99.90
2022-10-11T17:03:38.806Z,99.90
2022-10-11T17:06:07.529Z,99.90
2022-10-11T17:08:35.121Z,99.90
2022-10-11T17:11:02.016Z,99.90
2022-10-11T17:13:28.736Z,99.90
2022-10-11T17:15:55.433Z,99.90
2022-10-11T17:18:22.045Z,99.90
2022-10-11T17:20:48.943Z,99.90
2022-10-11T17:23:15.680Z,99.90
2022-10-11T17:25:46.873Z,99.90
2022-10-11T17:28:13.779Z,99.90
2022-10-11T17:30:43.212Z,99.90
2022-10-11T17:33:09.781Z,99.90
2022-10-11T17:35:36.511Z,99.90
2022-10-11T17:38:06.198Z,99.90
2022-10-11T17:40:33.491Z,99.90
2022-10-11T17:43:00.139Z,99.90
2022-10-11T17:45:26.810Z,99.90
2022-10-11T17:47:54.375Z,99.90
2022-10-11T17:50:21.077Z,99.90
2022-10-11T17:52:47.866Z,99.90
2022-10-11T17:55:15.087Z,99.90
2022-10-11T17:57:41.784Z,99.90
2022-10-11T18:00:09.142Z,99.90
2022-10-11T18:02:35.835Z,99.90
2022-10-11T18:05:04.185Z,99.90
2022-10-11T18:07:30.822Z,99.90
2022-10-11T18:09:57.806Z,99.90
2022-10-11T18:12:25.872Z,99.90
2022-10-11T18:14:52.818Z,99.90
2022-10-11T18:17:19.725Z,99.90
2022-10-11T18:19:46.420Z,99.90
2022-10-11T18:22:13.013Z,99.90
2022-10-11T18:24:41.454Z,99.90
2022-10-11T18:27:08.148Z,99.90
2022-10-11T18:29:35.002Z,99.90
2022-10-11T18:32:01.584Z,99.90
2022-10-11T18:34:28.241Z,99.90
2022-10-11T18:36:55.250Z,99.90
2022-10-11T18:39:22.043Z,99.90
2022-10-11T18:41:48.804Z,99.90
2022-10-11T18:44:16.129Z,99.90
2022-10-11T18:46:43.400Z,99.90
2022-10-11T18:49:10.059Z,99.90
2022-10-11T18:51:39.625Z,99.90
2022-10-11T18:54:07.865Z,99.90
2022-10-11T18:56:36.404Z,99.90
2022-10-11T18:59:03.817Z,99.90
2022-10-11T19:01:33.781Z,99.90
2022-10-11T19:04:02.428Z,99.90
2022-10-11T19:06:33.000Z,99.90
2022-10-11T19:09:09.357Z,99.90
2022-10-11T19:11:36.409Z,99.90
2022-10-11T19:14:14.616Z,99.90
2022-10-11T19:16:45.474Z,99.90
2022-10-11T19:19:13.052Z,99.90
2022-10-11T19:21:40.067Z,99.90
2022-10-11T19:24:07.163Z,99.90
2022-10-11T19:26:36.281Z,99.90
2022-10-11T19:29:11.911Z,99.90
2022-10-11T19:31:43.540Z,99.90
2022-10-11T19:34:10.807Z,99.90
2022-10-11T19:36:38.775Z,99.90
2022-10-11T19:39:06.099Z,99.90
2022-10-11T19:41:33.197Z,99.90
2022-10-11T19:43:59.846Z,99.90
2022-10-11T19:46:49.876Z,99.90
2022-10-11T19:49:17.298Z,99.90
2022-10-11T19:51:44.013Z,99.90
2022-10-11T19:54:13.491Z,99.90
2022-10-11T19:56:40.387Z,99.90
2022-10-11T19:59:07.428Z,99.90
2022-10-11T20:01:35.815Z,99.90
2022-10-11T20:04:05.322Z,99.90
2022-10-11T20:06:38.369Z,99.90
2022-10-11T20:11:53.972Z,99.90
2022-10-11T20:14:20.679Z,99.90
2022-10-11T20:16:50.099Z,99.90
2022-10-11T20:19:17.045Z,99.90
2022-10-11T20:21:43.913Z,99.90
2022-10-11T20:24:10.800Z,99.90
2022-10-11T20:26:37.586Z,99.90
2022-10-11T20:29:04.306Z,99.90
2022-10-11T20:31:34.119Z,99.90
2022-10-11T20:34:04.785Z,99.90
2022-10-11T20:36:33.076Z,99.90
2022-10-11T20:39:00.322Z,99.90
2022-10-11T20:41:31.376Z,99.90
2022-10-11T20:43:59.540Z,99.90
2022-10-11T20:46:29.416Z,99.90
2022-10-11T20:49:01.883Z,99.90
2022-10-11T20:51:30.655Z,99.90
2022-10-11T20:53:58.083Z,99.90
2022-10-11T20:56:24.781Z,99.90
2022-10-11T20:58:53.392Z,99.90
2022-10-11T21:01:23.495Z,99.90
2022-10-11T21:03:50.384Z,99.90
2022-10-11T21:06:17.061Z,99.90
2022-10-11T21:08:44.119Z,99.90
2022-10-11T21:11:11.489Z,99.90
2022-10-11T21:13:38.358Z,99.90
2022-10-11T21:16:13.417Z,99.90
2022-10-11T21:18:40.743Z,99.90
2022-10-11T21:21:12.542Z,99.90
2022-10-11T21:23:39.906Z,99.90
2022-10-11T21:26:09.262Z,99.90
2022-10-11T21:28:36.539Z,99.90
2022-10-11T21:31:04.498Z,99.90
2022-10-11T21:33:31.320Z,99.90
2022-10-11T21:35:58.186Z,99.90
2022-10-11T21:38:24.816Z,99.90
2022-10-11T21:40:51.773Z,99.90
2022-10-11T21:43:18.357Z,99.90
2022-10-11T21:45:45.787Z,99.90
2022-10-11T21:48:12.463Z,99.90
2022-10-11T21:50:39.221Z,99.90
2022-10-11T21:53:05.809Z,99.90
2022-10-11T21:55:32.492Z,99.90
2022-10-11T21:57:59.283Z,99.90
2022-10-11T22:00:25.972Z,99.90
2022-10-11T22:02:52.578Z,99.90
2022-10-11T22:05:19.227Z,99.90
2022-10-11T22:07:45.877Z,99.90
2022-10-11T22:10:12.496Z,99.90
2022-10-11T22:12:39.166Z,99.90
2022-10-11T22:15:06.415Z,99.90
2022-10-11T22:17:33.117Z,99.90
2022-10-11T22:20:00.549Z,99.90
2022-10-11T22:22:27.208Z,99.90
2022-10-11T22:24:53.816Z,99.90
2022-10-11T22:27:20.505Z,99.90
2022-10-11T22:29:47.152Z,99.90
2022-10-11T22:32:13.813Z,99.90
2022-10-11T22:34:40.423Z,99.90
2022-10-11T22:37:07.033Z,99.90
2022-10-11T22:39:33.980Z,99.90
2022-10-11T22:42:00.604Z,99.90
2022-10-11T22:44:27.187Z,99.90
2022-10-11T22:46:53.876Z,99.90
2022-10-11T22:49:20.536Z,99.90
2022-10-11T22:51:49.298Z,99.90
2022-10-11T22:54:15.949Z,99.90
2022-10-11T22:56:42.709Z,99.90
2022-10-11T22:59:09.551Z,99.90
2022-10-11T23:01:36.228Z,99.90
2022-10-11T23:04:02.930Z,99.90
2022-10-11T23:06:29.814Z,99.90
2022-10-11T23:08:56.555Z,99.90
2022-10-11T23:11:23.248Z,99.90
2022-10-11T23:13:49.886Z,99.90
2022-10-11T23:16:16.594Z,99.90
2022-10-11T23:18:43.422Z,99.90
2022-10-11T23:21:10.521Z,99.90
2022-10-11T23:23:39.505Z,99.90
2022-10-11T23:26:10.514Z,99.90
2022-10-11T23:28:37.541Z,99.90
2022-10-11T23:31:16.385Z,99.90
2022-10-11T23:33:46.808Z,99.90
2022-10-11T23:36:22.109Z,99.90
2022-10-11T23:38:53.376Z,99.90
2022-10-11T23:41:22.163Z,99.90
2022-10-11T23:43:48.777Z,99.90
2022-10-11T23:46:15.659Z,99.90
2022-10-11T23:48:43.982Z,99.90
2022-10-11T23:51:11.034Z,99.90
2022-10-11T23:53:38.198Z,99.90
2022-10-11T23:56:05.500Z,99.90
2022-10-11T23:58:32.570Z,99.90
